Time;durP1;ratioP1;P1;durP2;ratioP2;P2;SDS_P1;SDS_P2;PMS_P1;PMS_P2;Temp;Humidity;BMP_temperature;BMP_pressure;BME280_temperature;BME280_humidity;BME280_pressure;Samples;Min_cycle;Max_cycle;Signal;HPM_P1;HPM_P2
2023/02/12 15:46:07;;;;;;;23.80;10.38;;;9.00;99.90;;;;;;5128449;27;20322;-61
2023/02/12 15:48:35;;;;;;;18.90;9.48;;;9.10;99.90;;;;;;5129323;28;20106;-61
2023/02/12 15:51:16;;;;;;;24.70;10.93;;;9.10;99.90;;;;;;5118747;27;20026;-62
2023/02/12 15:53:43;;;;;;;22.20;10.70;;;9.20;99.90;;;;;;5100133;28;20479;-61
2023/02/12 15:56:13;;;;;;;25.17;10.68;;;9.20;99.90;;;;;;5122234;28;20032;-61
2023/02/12 15:58:46;;;;;;;26.42;12.20;;;9.30;99.90;;;;;;5111818;27;20095;-61
2023/02/12 16:01:17;;;;;;;20.38;9.02;;;9.40;99.90;;;;;;5123873;28;20039;-61
2023/02/12 16:03:43;;;;;;;22.27;10.50;;;9.40;99.90;;;;;;5128966;28;20015;-61
2023/02/12 16:06:15;;;;;;;24.88;11.63;;;9.50;99.90;;;;;;5116333;27;20028;-61
2023/02/12 16:08:44;;;;;;;28.40;12.02;;;9.60;99.90;;;;;;5109535;28;20015;-61
2023/02/12 16:11:14;;;;;;;22.83;10.27;;;9.60;99.90;;;;;;5114649;27;20058;-61
2023/02/12 16:13:56;;;;;;;24.65;11.20;;;9.60;99.90;;;;;;5110479;28;20020;-61
2023/02/12 16:16:27;;;;;;;24.05;11.05;;;9.70;99.90;;;;;;5121389;27;20572;-61
2023/02/12 16:19:22;;;;;;;24.70;10.93;;;9.60;99.90;;;;;;5120081;27;20102;-61
2023/02/12 16:22:09;;;;;;;23.05;11.40;;;9.70;99.90;;;;;;5107341;28;20016;-61
2023/02/12 16:24:43;;;;;;;29.83;11.80;;;9.70;99.90;;;;;;5121850;27;20027;-61
2023/02/12 16:27:21;;;;;;;25.45;12.43;;;9.60;99.90;;;;;;5135381;27;20100;-61
2023/02/12 16:29:50;;;;;;;28.85;12.02;;;9.60;99.90;;;;;;5128584;28;20401;-62
2023/02/12 16:32:34;;;;;;;30.83;12.27;;;9.60;99.90;;;;;;5128548;27;20364;-61
2023/02/12 16:35:23;;;;;;;25.27;11.75;;;9.60;99.90;;;;;;5126550;28;20028;-61
2023/02/12 16:37:55;;;;;;;30.50;13.75;;;9.60;99.90;;;;;;5127192;28;20049;-62
2023/02/12 16:40:31;;;;;;;27.38;12.82;;;9.60;99.90;;;;;;5110959;28;20031;-61
2023/02/12 16:43:21;;;;;;;27.23;11.05;;;9.50;99.90;;;;;;5127560;27;20102;-62
2023/02/12 16:45:46;;;;;;;25.42;11.10;;;9.50;99.90;;;;;;5128253;28;20047;-62
2023/02/12 16:48:22;;;;;;;26.60;12.13;;;9.50;99.90;;;;;;5128238;28;20087;-62
2023/02/12 16:50:51;;;;;;;23.15;11.77;;;9.50;99.90;;;;;;5127862;28;20115;-62
2023/02/12 16:53:25;;;;;;;25.73;11.38;;;9.50;99.90;;;;;;5128336;28;20016;-62
2023/02/12 16:55:50;;;;;;;22.02;10.27;;;9.50;99.90;;;;;;5122574;28;20839;-62
2023/02/12 16:58:16;;;;;;;26.52;11.50;;;9.40;99.90;;;;;;5114675;27;20021;-61
2023/02/12 17:00:41;;;;;;;23.67;11.20;;;9.40;99.90;;;;;;5111037;27;20019;-61
2023/02/12 17:03:12;;;;;;;23.85;10.80;;;9.40;99.90;;;;;;5095469;28;20023;-62
2023/02/12 17:05:38;;;;;;;23.90;10.52;;;9.40;99.90;;;;;;5114639;28;20073;-62
2023/02/12 17:08:11;;;;;;;24.45;10.98;;;9.30;99.90;;;;;;5095787;28;20031;-61
2023/02/12 17:10:37;;;;;;;24.17;11.75;;;9.30;99.90;;;;;;5118312;27;20054;-61
2023/02/12 17:13:04;;;;;;;25.73;11.13;;;9.30;99.90;;;;;;5104931;28;20024;-62
2023/02/12 17:15:34;;;;;;;22.23;10.60;;;9.30;99.90;;;;;;5113015;27;20030;-61
2023/02/12 17:18:00;;;;;;;25.60;11.38;;;9.30;99.90;;;;;;5133703;27;20224;-62
2023/02/12 17:20:25;;;;;;;25.65;11.88;;;9.30;99.90;;;;;;5134768;27;20459;-61
2023/02/12 17:22:53;;;;;;;26.58;12.07;;;9.30;99.90;;;;;;5116241;27;20023;-61
2023/02/12 17:25:19;;;;;;;26.15;11.48;;;9.30;99.90;;;;;;5112226;27;20120;-61
2023/02/12 17:27:45;;;;;;;26.00;11.63;;;9.30;99.90;;;;;;5133197;27;20055;-61
2023/02/12 17:30:16;;;;;;;28.38;12.77;;;9.30;99.90;;;;;;5134891;27;20386;-62
2023/02/12 17:32:42;;;;;;;28.20;13.15;;;9.30;99.90;;;;;;5134141;27;20042;-62
2023/02/12 17:35:08;;;;;;;24.85;11.30;;;9.30;99.90;;;;;;5134335;27;20027;-61
2023/02/12 17:37:34;;;;;;;25.75;11.73;;;9.30;99.90;;;;;;5134627;27;20460;-61
2023/02/12 17:40:00;;;;;;;32.33;12.70;;;9.20;99.90;;;;;;5132187;27;20027;-60
2023/02/12 17:42:26;;;;;;;25.23;11.50;;;9.20;99.90;;;;;;5132622;27;20016;-62
2023/02/12 17:44:52;;;;;;;28.27;12.00;;;9.20;99.90;;;;;;5100551;28;20245;-62
2023/02/12 17:47:17;;;;;;;26.38;12.65;;;9.20;99.90;;;;;;5090585;28;20013;-62
2023/02/12 17:49:43;;;;;;;27.25;12.75;;;9.20;99.90;;;;;;5093421;28;20390;-62
2023/02/12 17:52:09;;;;;;;25.83;11.70;;;9.10;99.90;;;;;;5072382;28;20024;-62
2023/02/12 17:54:35;;;;;;;24.42;11.70;;;9.10;99.90;;;;;;5072081;28;20500;-62
2023/02/12 17:57:01;;;;;;;27.85;12.63;;;9.10;99.90;;;;;;5068711;28;20144;-62
2023/02/12 17:59:26;;;;;;;27.58;13.02;;;9.10;99.90;;;;;;5062479;28;20151;-61
2023/02/12 18:01:52;;;;;;;26.75;12.00;;;9.10;99.90;;;;;;5060029;28;20021;-61
2023/02/12 18:04:17;;;;;;;31.50;13.45;;;9.10;99.90;;;;;;5071912;28;20040;-62
2023/02/12 18:06:43;;;;;;;25.90;11.98;;;9.00;99.90;;;;;;5062212;28;20392;-62
2023/02/12 18:09:08;;;;;;;30.38;13.02;;;9.00;99.90;;;;;;5071648;28;20031;-61
2023/02/12 18:11:36;;;;;;;30.42;13.32;;;8.90;99.90;;;;;;5072150;28;20025;-61
2023/02/12 18:14:02;;;;;;;31.63;13.10;;;8.90;99.90;;;;;;5071705;28;20021;-61
2023/02/12 18:16:30;;;;;;;30.83;13.23;;;8.90;99.90;;;;;;5072557;28;20044;-61
2023/02/12 18:18:56;;;;;;;28.33;13.43;;;8.80;99.90;;;;;;5072268;28;20025;-62
2023/02/12 18:21:22;;;;;;;30.15;13.38;;;8.80;99.90;;;;;;5071651;28;20095;-62
2023/02/12 18:23:47;;;;;;;28.70;12.80;;;8.80;99.90;;;;;;5071108;28;20453;-61
2023/02/12 18:26:16;;;;;;;29.88;13.82;;;8.80;99.90;;;;;;5071525;28;20123;-61
2023/02/12 18:28:42;;;;;;;32.28;13.60;;;8.80;99.90;;;;;;5071552;28;20412;-60
2023/02/12 18:31:09;;;;;;;31.85;13.75;;;8.80;99.90;;;;;;5069403;28;20024;-61
2023/02/12 18:33:36;;;;;;;29.17;12.95;;;8.70;99.90;;;;;;5066520;28;20112;-62
2023/02/12 18:36:06;;;;;;;27.67;13.25;;;8.70;99.90;;;;;;5071278;28;20021;-62
2023/02/12 18:38:34;;;;;;;26.70;12.02;;;8.70;99.90;;;;;;5072047;28;20469;-62
2023/02/12 18:41:05;;;;;;;31.23;13.07;;;8.70;99.90;;;;;;5088436;28;20024;-62
2023/02/12 18:43:32;;;;;;;28.55;12.25;;;8.70;99.90;;;;;;5092751;28;20028;-62
2023/02/12 18:45:58;;;;;;;27.63;12.23;;;8.70;99.90;;;;;;5055300;28;20040;-62
2023/02/12 18:48:24;;;;;;;31.45;13.25;;;8.60;99.90;;;;;;5070798;28;20024;-62
2023/02/12 18:50:53;;;;;;;30.60;13.20;;;8.60;99.90;;;;;;5062157;28;20024;-62
2023/02/12 18:53:19;;;;;;;27.55;13.32;;;8.60;99.90;;;;;;5052118;28;20021;-62
2023/02/12 18:55:45;;;;;;;27.30;12.70;;;8.50;99.90;;;;;;5069636;28;20331;-62
2023/02/12 18:58:10;;;;;;;27.27;12.57;;;8.60;99.90;;;;;;5072289;28;20040;-62
2023/02/12 19:00:36;;;;;;;26.60;12.10;;;8.60;99.90;;;;;;5074745;28;20023;-60
2023/02/12 19:03:02;;;;;;;28.42;12.55;;;8.60;99.90;;;;;;5072740;28;20056;-61
2023/02/12 19:05:29;;;;;;;30.52;12.38;;;8.60;99.90;;;;;;5071423;28;20134;-61
2023/02/12 19:07:55;;;;;;;23.95;11.75;;;8.60;99.90;;;;;;5071357;28;20100;-61
2023/02/12 19:10:21;;;;;;;24.10;10.88;;;8.50;99.90;;;;;;5071085;28;20452;-60
2023/02/12 19:12:46;;;;;;;26.98;12.00;;;8.50;99.90;;;;;;5084843;28;20028;-61
2023/02/12 19:15:12;;;;;;;24.90;11.88;;;8.50;99.90;;;;;;5091238;28;20023;-61
2023/02/12 19:17:37;;;;;;;24.77;11.65;;;8.50;99.90;;;;;;5089027;28;20032;-61
2023/02/12 19:20:03;;;;;;;29.20;12.98;;;8.40;99.90;;;;;;5091183;28;20069;-60
2023/02/12 19:22:29;;;;;;;29.20;11.93;;;8.40;99.90;;;;;;5091967;28;20028;-61
2023/02/12 19:24:54;;;;;;;30.17;13.40;;;8.40;99.90;;;;;;5086853;28;20070;-61
2023/02/12 19:27:20;;;;;;;28.08;11.98;;;8.40;99.90;;;;;;5071482;28;20032;-61
2023/02/12 19:29:46;;;;;;;23.08;10.30;;;8.40;99.90;;;;;;5083437;28;20107;-61
2023/02/12 19:32:11;;;;;;;26.75;11.68;;;8.30;99.90;;;;;;5090845;28;20024;-62
2023/02/12 19:34:37;;;;;;;25.45;11.23;;;8.30;99.90;;;;;;5091909;28;20024;-61
2023/02/12 19:37:02;;;;;;;26.55;12.07;;;8.30;99.90;;;;;;5091605;28;20048;-61
2023/02/12 19:39:28;;;;;;;24.80;11.80;;;8.30;99.90;;;;;;5089298;28;20020;-61
2023/02/12 19:41:55;;;;;;;24.65;11.05;;;8.40;99.90;;;;;;5084175;28;20031;-60
2023/02/12 19:44:23;;;;;;;29.60;12.23;;;8.40;99.90;;;;;;5084309;28;20188;-61
2023/02/12 19:46:49;;;;;;;26.50;12.60;;;8.50;99.90;;;;;;5111910;28;20054;-62
2023/02/12 19:49:18;;;;;;;27.90;12.98;;;8.50;99.90;;;;;;5111372;28;20094;-61
2023/02/12 19:51:44;;;;;;;26.85;12.93;;;8.50;99.90;;;;;;5110950;28;20032;-61
2023/02/12 19:54:11;;;;;;;28.77;13.77;;;8.50;99.90;;;;;;5073061;28;20021;-61
2023/02/12 19:56:37;;;;;;;25.50;12.50;;;8.50;99.90;;;;;;5103511;28;20488;-61
2023/02/12 19:59:04;;;;;;;23.17;11.38;;;8.50;99.90;;;;;;5094854;28;20047;-61
2023/02/12 20:01:29;;;;;;;22.92;11.25;;;8.40;99.90;;;;;;5111757;28;20031;-61
2023/02/12 20:03:57;;;;;;;25.17;12.10;;;8.40;99.90;;;;;;5110914;28;20030;-61
2023/02/12 20:06:26;;;;;;;24.77;11.65;;;8.40;99.90;;;;;;5111339;28;20050;-61
2023/02/12 20:08:52;;;;;;;23.17;11.00;;;8.30;99.90;;;;;;5111262;28;20024;-61
2023/02/12 20:11:20;;;;;;;25.17;11.48;;;8.40;99.90;;;;;;5111441;28;20109;-61
2023/02/12 20:13:46;;;;;;;26.15;12.13;;;8.40;99.90;;;;;;5130721;28;20027;-61
2023/02/12 20:16:14;;;;;;;26.83;11.55;;;8.30;99.90;;;;;;5130953;28;20023;-61
2023/02/12 20:18:41;;;;;;;25.42;13.60;;;8.40;99.90;;;;;;5131982;28;20138;-60
2023/02/12 20:21:16;;;;;;;26.23;12.35;;;8.30;99.90;;;;;;5131186;28;20027;-61
2023/02/12 20:23:42;;;;;;;22.90;11.52;;;8.30;99.90;;;;;;5131927;28;20023;-61
2023/02/12 20:26:10;;;;;;;22.48;11.27;;;8.30;99.90;;;;;;5120716;28;20080;-60
2023/02/12 20:28:36;;;;;;;26.00;11.60;;;8.30;99.90;;;;;;5114678;28;20058;-61
2023/02/12 20:31:17;;;;;;;27.15;13.07;;;8.20;99.90;;;;;;5106822;28;20039;-60
